sensor_id;sensor_type;location;lat;lon;timestamp;P1;durP1;ratioP1;P2;durP2;ratioP2
50569;SDS011;36525;49.398;7.614;2023-04-08T00:02:10;18.85;;;13.38;;
50569;SDS011;36525;49.398;7.614;2023-04-08T00:04:37;24.95;;;14.80;;
50569;SDS011;36525;49.398;7.614;2023-04-08T00:07:04;20.90;;;13.25;;
50569;SDS011;36525;49.398;7.614;2023-04-08T00:09:32;19.27;;;13.57;;
50569;SDS011;36525;49.398;7.614;2023-04-08T00:11:59;24.38;;;14.80;;
50569;SDS011;36525;49.398;7.614;2023-04-08T00:14:27;22.95;;;16.10;;
50569;SDS011;36525;49.398;7.614;2023-04-08T00:16:54;28.13;;;18.25;;
50569;SDS011;36525;49.398;7.614;2023-04-08T00:19:21;25.73;;;17.20;;
50569;SDS011;36525;49.398;7.614;2023-04-08T00:21:49;24.52;;;16.83;;
50569;SDS011;36525;49.398;7.614;2023-04-08T00:24:17;21.10;;;15.35;;
50569;SDS011;36525;49.398;7.614;2023-04-08T00:26:44;24.90;;;16.98;;
50569;SDS011;36525;49.398;7.614;2023-04-08T00:29:11;25.67;;;16.58;;
50569;SDS011;36525;49.398;7.614;2023-04-08T00:31:39;27.42;;;17.40;;
50569;SDS011;36525;49.398;7.614;2023-04-08T00:34:07;22.35;;;15.45;;
50569;SDS011;36525;49.398;7.614;2023-04-08T00:36:34;23.85;;;16.02;;
50569;SDS011;36525;49.398;7.614;2023-04-08T00:39:01;30.25;;;17.50;;
50569;SDS011;36525;49.398;7.614;2023-04-08T00:41:30;27.83;;;17.20;;
50569;SDS011;36525;49.398;7.614;2023-04-08T00:44:01;32.80;;;16.75;;
50569;SDS011;36525;49.398;7.614;2023-04-08T00:46:29;26.65;;;17.90;;
50569;SDS011;36525;49.398;7.614;2023-04-08T00:48:57;32.13;;;18.42;;
50569;SDS011;36525;49.398;7.614;2023-04-08T00:51:24;28.42;;;18.58;;
50569;SDS011;36525;49.398;7.614;2023-04-08T00:53:51;25.75;;;16.33;;
50569;SDS011;36525;49.398;7.614;2023-04-08T00:56:19;31.30;;;19.25;;
50569;SDS011;36525;49.398;7.614;2023-04-08T00:58:46;32.72;;;18.35;;
50569;SDS011;36525;49.398;7.614;2023-04-08T01:01:17;27.52;;;17.08;;
50569;SDS011;36525;49.398;7.614;2023-04-08T01:07:11;30.23;;;19.50;;
50569;SDS011;36525;49.398;7.614;2023-04-08T01:09:54;27.73;;;17.33;;
50569;SDS011;36525;49.398;7.614;2023-04-08T01:12:27;30.60;;;17.77;;
50569;SDS011;36525;49.398;7.614;2023-04-08T01:17:31;29.23;;;17.90;;
50569;SDS011;36525;49.398;7.614;2023-04-08T01:19:59;30.75;;;18.73;;
50569;SDS011;36525;49.398;7.614;2023-04-08T01:25:29;32.63;;;20.25;;
50569;SDS011;36525;49.398;7.614;2023-04-08T01:28:07;33.13;;;20.75;;
50569;SDS011;36525;49.398;7.614;2023-04-08T01:30:39;32.70;;;20.85;;
50569;SDS011;36525;49.398;7.614;2023-04-08T01:33:11;33.70;;;20.02;;
50569;SDS011;36525;49.398;7.614;2023-04-08T01:35:41;36.85;;;22.75;;
50569;SDS011;36525;49.398;7.614;2023-04-08T01:38:13;28.30;;;19.30;;
50569;SDS011;36525;49.398;7.614;2023-04-08T01:40:44;35.08;;;21.42;;
50569;SDS011;36525;49.398;7.614;2023-04-08T01:43:13;30.15;;;19.60;;
50569;SDS011;36525;49.398;7.614;2023-04-08T01:45:43;35.55;;;22.42;;
50569;SDS011;36525;49.398;7.614;2023-04-08T01:48:12;32.85;;;21.52;;
50569;SDS011;36525;49.398;7.614;2023-04-08T01:50:42;39.47;;;23.55;;
50569;SDS011;36525;49.398;7.614;2023-04-08T01:53:10;36.17;;;22.02;;
50569;SDS011;36525;49.398;7.614;2023-04-08T01:55:38;31.15;;;21.23;;
50569;SDS011;36525;49.398;7.614;2023-04-08T01:58:07;34.90;;;22.77;;
50569;SDS011;36525;49.398;7.614;2023-04-08T02:00:41;35.47;;;22.45;;
50569;SDS011;36525;49.398;7.614;2023-04-08T02:03:08;32.35;;;20.73;;
50569;SDS011;36525;49.398;7.614;2023-04-08T02:05:39;32.72;;;21.17;;
50569;SDS011;36525;49.398;7.614;2023-04-08T02:08:06;38.40;;;25.02;;
50569;SDS011;36525;49.398;7.614;2023-04-08T02:10:33;29.63;;;20.15;;
50569;SDS011;36525;49.398;7.614;2023-04-08T02:13:00;34.13;;;22.20;;
50569;SDS011;36525;49.398;7.614;2023-04-08T02:15:28;32.47;;;22.15;;
50569;SDS011;36525;49.398;7.614;2023-04-08T02:18:06;38.28;;;22.50;;
50569;SDS011;36525;49.398;7.614;2023-04-08T02:20:43;38.65;;;23.17;;
50569;SDS011;36525;49.398;7.614;2023-04-08T02:23:19;38.40;;;22.08;;
50569;SDS011;36525;49.398;7.614;2023-04-08T02:25:51;35.40;;;23.85;;
50569;SDS011;36525;49.398;7.614;2023-04-08T02:28:21;43.92;;;24.30;;
50569;SDS011;36525;49.398;7.614;2023-04-08T02:30:49;34.53;;;22.90;;
50569;SDS011;36525;49.398;7.614;2023-04-08T02:33:18;41.45;;;22.02;;
50569;SDS011;36525;49.398;7.614;2023-04-08T02:35:48;40.03;;;23.60;;
50569;SDS011;36525;49.398;7.614;2023-04-08T02:38:20;38.00;;;22.00;;
50569;SDS011;36525;49.398;7.614;2023-04-08T02:40:48;41.90;;;24.05;;
50569;SDS011;36525;49.398;7.614;2023-04-08T02:43:16;43.38;;;23.63;;
50569;SDS011;36525;49.398;7.614;2023-04-08T02:45:43;37.47;;;23.20;;
50569;SDS011;36525;49.398;7.614;2023-04-08T02:48:11;35.63;;;21.35;;
50569;SDS011;36525;49.398;7.614;2023-04-08T02:50:38;33.70;;;20.98;;
50569;SDS011;36525;49.398;7.614;2023-04-08T02:53:06;37.08;;;22.63;;
50569;SDS011;36525;49.398;7.614;2023-04-08T02:55:34;37.70;;;22.23;;
50569;SDS011;36525;49.398;7.614;2023-04-08T02:58:01;37.08;;;21.83;;
50569;SDS011;36525;49.398;7.614;2023-04-08T03:00:28;33.33;;;22.15;;
50569;SDS011;36525;49.398;7.614;2023-04-08T03:02:55;40.97;;;24.50;;
50569;SDS011;36525;49.398;7.614;2023-04-08T03:05:25;45.72;;;23.38;;
50569;SDS011;36525;49.398;7.614;2023-04-08T03:07:52;40.70;;;25.05;;
50569;SDS011;36525;49.398;7.614;2023-04-08T03:10:19;44.13;;;25.15;;
50569;SDS011;36525;49.398;7.614;2023-04-08T03:12:47;41.53;;;22.38;;
50569;SDS011;36525;49.398;7.614;2023-04-08T03:15:14;40.00;;;26.15;;
50569;SDS011;36525;49.398;7.614;2023-04-08T03:17:41;38.28;;;22.88;;
50569;SDS011;36525;49.398;7.614;2023-04-08T03:20:09;39.50;;;24.42;;
50569;SDS011;36525;49.398;7.614;2023-04-08T03:22:39;37.80;;;23.17;;
50569;SDS011;36525;49.398;7.614;2023-04-08T03:25:06;37.38;;;22.55;;
50569;SDS011;36525;49.398;7.614;2023-04-08T03:27:34;33.97;;;21.67;;
50569;SDS011;36525;49.398;7.614;2023-04-08T03:30:01;31.45;;;22.45;;
50569;SDS011;36525;49.398;7.614;2023-04-08T03:32:28;38.58;;;23.80;;
50569;SDS011;36525;49.398;7.614;2023-04-08T03:34:55;32.58;;;23.27;;
50569;SDS011;36525;49.398;7.614;2023-04-08T03:37:23;33.05;;;21.77;;
50569;SDS011;36525;49.398;7.614;2023-04-08T03:39:50;35.55;;;23.20;;
50569;SDS011;36525;49.398;7.614;2023-04-08T03:42:17;37.97;;;23.95;;
50569;SDS011;36525;49.398;7.614;2023-04-08T03:44:44;41.15;;;23.23;;
50569;SDS011;36525;49.398;7.614;2023-04-08T03:47:11;34.72;;;23.08;;
50569;SDS011;36525;49.398;7.614;2023-04-08T03:49:38;39.75;;;23.27;;
50569;SDS011;36525;49.398;7.614;2023-04-08T03:52:05;41.33;;;24.85;;
50569;SDS011;36525;49.398;7.614;2023-04-08T03:54:33;35.55;;;21.90;;
50569;SDS011;36525;49.398;7.614;2023-04-08T03:57:00;34.30;;;22.05;;
50569;SDS011;36525;49.398;7.614;2023-04-08T03:59:27;33.75;;;21.67;;
50569;SDS011;36525;49.398;7.614;2023-04-08T04:01:54;41.95;;;24.42;;
50569;SDS011;36525;49.398;7.614;2023-04-08T04:04:21;40.63;;;24.25;;
50569;SDS011;36525;49.398;7.614;2023-04-08T04:06:49;42.53;;;24.17;;
50569;SDS011;36525;49.398;7.614;2023-04-08T04:09:17;34.22;;;23.30;;
50569;SDS011;36525;49.398;7.614;2023-04-08T04:11:44;38.22;;;23.85;;
50569;SDS011;36525;49.398;7.614;2023-04-08T04:14:11;36.67;;;23.52;;
50569;SDS011;36525;49.398;7.614;2023-04-08T04:16:38;37.75;;;22.88;;
50569;SDS011;36525;49.398;7.614;2023-04-08T04:19:05;38.95;;;23.40;;
50569;SDS011;36525;49.398;7.614;2023-04-08T04:21:32;40.63;;;23.63;;
50569;SDS011;36525;49.398;7.614;2023-04-08T04:23:59;39.97;;;22.83;;
50569;SDS011;36525;49.398;7.614;2023-04-08T04:26:26;37.05;;;23.77;;
50569;SDS011;36525;49.398;7.614;2023-04-08T04:28:53;43.10;;;24.23;;
50569;SDS011;36525;49.398;7.614;2023-04-08T04:31:20;45.58;;;24.92;;
50569;SDS011;36525;49.398;7.614;2023-04-08T04:33:51;53.80;;;27.58;;
50569;SDS011;36525;49.398;7.614;2023-04-08T04:36:18;43.63;;;25.48;;
50569;SDS011;36525;49.398;7.614;2023-04-08T04:38:46;43.38;;;23.63;;
50569;SDS011;36525;49.398;7.614;2023-04-08T04:41:15;38.47;;;22.83;;
50569;SDS011;36525;49.398;7.614;2023-04-08T04:43:42;35.03;;;22.60;;
50569;SDS011;36525;49.398;7.614;2023-04-08T04:46:10;44.78;;;25.88;;
50569;SDS011;36525;49.398;7.614;2023-04-08T04:48:37;48.97;;;26.50;;
50569;SDS011;36525;49.398;7.614;2023-04-08T04:51:04;45.33;;;25.95;;
50569;SDS011;36525;49.398;7.614;2023-04-08T04:53:32;45.08;;;26.38;;
50569;SDS011;36525;49.398;7.614;2023-04-08T04:55:59;46.03;;;26.45;;
50569;SDS011;36525;49.398;7.614;2023-04-08T04:58:27;39.45;;;24.80;;
50569;SDS011;36525;49.398;7.614;2023-04-08T05:00:56;35.72;;;22.77;;
50569;SDS011;36525;49.398;7.614;2023-04-08T05:03:23;41.08;;;25.75;;
50569;SDS011;36525;49.398;7.614;2023-04-08T05:05:50;45.00;;;26.42;;
50569;SDS011;36525;49.398;7.614;2023-04-08T05:08:19;53.83;;;27.85;;
50569;SDS011;36525;49.398;7.614;2023-04-08T05:10:47;42.35;;;25.52;;
50569;SDS011;36525;49.398;7.614;2023-04-08T05:13:16;44.00;;;25.13;;
50569;SDS011;36525;49.398;7.614;2023-04-08T05:15:44;53.08;;;28.35;;
50569;SDS011;36525;49.398;7.614;2023-04-08T05:18:11;52.45;;;28.42;;
50569;SDS011;36525;49.398;7.614;2023-04-08T05:20:38;46.25;;;26.60;;
50569;SDS011;36525;49.398;7.614;2023-04-08T05:23:05;46.53;;;27.40;;
50569;SDS011;36525;49.398;7.614;2023-04-08T05:25:33;38.70;;;23.23;;
50569;SDS011;36525;49.398;7.614;2023-04-08T05:28:00;36.72;;;24.40;;
50569;SDS011;36525;49.398;7.614;2023-04-08T05:30:28;44.72;;;24.13;;
50569;SDS011;36525;49.398;7.614;2023-04-08T05:32:56;43.63;;;25.70;;
50569;SDS011;36525;49.398;7.614;2023-04-08T05:35:25;42.85;;;25.80;;
50569;SDS011;36525;49.398;7.614;2023-04-08T05:37:53;47.70;;;28.77;;
50569;SDS011;36525;49.398;7.614;2023-04-08T05:40:20;45.85;;;27.13;;
50569;SDS011;36525;49.398;7.614;2023-04-08T05:42:47;43.05;;;25.73;;
50569;SDS011;36525;49.398;7.614;2023-04-08T05:45:14;54.30;;;27.02;;
50569;SDS011;36525;49.398;7.614;2023-04-08T05:47:41;44.42;;;24.88;;
50569;SDS011;36525;49.398;7.614;2023-04-08T05:50:08;36.70;;;23.00;;
50569;SDS011;36525;49.398;7.614;2023-04-08T05:52:36;39.78;;;25.55;;
50569;SDS011;36525;49.398;7.614;2023-04-08T05:55:08;38.75;;;24.73;;
50569;SDS011;36525;49.398;7.614;2023-04-08T05:57:36;37.78;;;24.00;;
50569;SDS011;36525;49.398;7.614;2023-04-08T06:00:04;38.88;;;23.52;;
50569;SDS011;36525;49.398;7.614;2023-04-08T06:02:34;36.67;;;24.40;;
50569;SDS011;36525;49.398;7.614;2023-04-08T06:05:02;34.88;;;23.80;;
50569;SDS011;36525;49.398;7.614;2023-04-08T06:07:31;38.25;;;24.60;;
50569;SDS011;36525;49.398;7.614;2023-04-08T06:09:59;35.67;;;23.73;;
50569;SDS011;36525;49.398;7.614;2023-04-08T06:12:26;44.53;;;25.55;;
50569;SDS011;36525;49.398;7.614;2023-04-08T06:14:54;38.08;;;24.40;;
50569;SDS011;36525;49.398;7.614;2023-04-08T06:17:21;46.03;;;25.88;;
50569;SDS011;36525;49.398;7.614;2023-04-08T06:19:49;39.95;;;24.58;;
50569;SDS011;36525;49.398;7.614;2023-04-08T06:22:16;44.58;;;26.13;;
50569;SDS011;36525;49.398;7.614;2023-04-08T06:24:43;40.60;;;24.52;;
50569;SDS011;36525;49.398;7.614;2023-04-08T06:27:11;34.47;;;24.05;;
50569;SDS011;36525;49.398;7.614;2023-04-08T06:29:38;41.10;;;24.98;;
50569;SDS011;36525;49.398;7.614;2023-04-08T06:32:08;40.22;;;25.38;;
50569;SDS011;36525;49.398;7.614;2023-04-08T06:34:36;46.80;;;26.40;;
50569;SDS011;36525;49.398;7.614;2023-04-08T06:37:03;44.03;;;26.38;;
50569;SDS011;36525;49.398;7.614;2023-04-08T06:39:31;41.70;;;26.23;;
50569;SDS011;36525;49.398;7.614;2023-04-08T06:41:59;44.67;;;27.35;;
50569;SDS011;36525;49.398;7.614;2023-04-08T06:44:26;37.67;;;25.50;;
50569;SDS011;36525;49.398;7.614;2023-04-08T06:46:52;43.10;;;27.55;;
50569;SDS011;36525;49.398;7.614;2023-04-08T06:49:19;39.47;;;24.60;;
50569;SDS011;36525;49.398;7.614;2023-04-08T06:51:46;44.80;;;24.95;;
50569;SDS011;36525;49.398;7.614;2023-04-08T06:54:17;41.30;;;25.58;;
50569;SDS011;36525;49.398;7.614;2023-04-08T06:56:44;40.25;;;25.85;;
50569;SDS011;36525;49.398;7.614;2023-04-08T06:59:11;36.35;;;23.38;;
50569;SDS011;36525;49.398;7.614;2023-04-08T07:01:39;35.63;;;24.67;;
50569;SDS011;36525;49.398;7.614;2023-04-08T07:04:09;39.58;;;24.30;;
50569;SDS011;36525;49.398;7.614;2023-04-08T07:06:36;33.00;;;23.92;;
50569;SDS011;36525;49.398;7.614;2023-04-08T07:09:03;35.35;;;22.13;;
50569;SDS011;36525;49.398;7.614;2023-04-08T07:11:30;32.42;;;22.17;;
50569;SDS011;36525;49.398;7.614;2023-04-08T07:13:57;35.05;;;21.52;;
50569;SDS011;36525;49.398;7.614;2023-04-08T07:16:25;31.02;;;20.05;;
50569;SDS011;36525;49.398;7.614;2023-04-08T07:18:52;32.95;;;21.17;;
50569;SDS011;36525;49.398;7.614;2023-04-08T07:21:20;34.90;;;21.02;;
50569;SDS011;36525;49.398;7.614;2023-04-08T07:23:47;30.98;;;21.42;;
50569;SDS011;36525;49.398;7.614;2023-04-08T07:26:14;30.17;;;19.67;;
50569;SDS011;36525;49.398;7.614;2023-04-08T07:28:41;29.25;;;20.35;;
50569;SDS011;36525;49.398;7.614;2023-04-08T07:31:15;33.33;;;20.98;;
50569;SDS011;36525;49.398;7.614;2023-04-08T07:33:44;27.60;;;18.75;;
50569;SDS011;36525;49.398;7.614;2023-04-08T07:36:12;26.98;;;18.40;;
50569;SDS011;36525;49.398;7.614;2023-04-08T07:38:40;25.70;;;17.73;;
50569;SDS011;36525;49.398;7.614;2023-04-08T07:41:07;28.95;;;19.95;;
50569;SDS011;36525;49.398;7.614;2023-04-08T07:43:34;31.75;;;20.27;;
50569;SDS011;36525;49.398;7.614;2023-04-08T07:46:03;30.08;;;21.17;;
50569;SDS011;36525;49.398;7.614;2023-04-08T07:48:31;28.83;;;20.52;;
50569;SDS011;36525;49.398;7.614;2023-04-08T07:51:04;27.65;;;20.65;;
50569;SDS011;36525;49.398;7.614;2023-04-08T07:53:35;25.20;;;18.42;;
50569;SDS011;36525;49.398;7.614;2023-04-08T07:56:09;30.50;;;20.27;;
50569;SDS011;36525;49.398;7.614;2023-04-08T07:58:40;28.35;;;19.83;;
50569;SDS011;36525;49.398;7.614;2023-04-08T08:01:15;26.85;;;18.80;;
50569;SDS011;36525;49.398;7.614;2023-04-08T08:03:44;25.60;;;19.80;;
50569;SDS011;36525;49.398;7.614;2023-04-08T08:06:13;24.02;;;18.40;;
50569;SDS011;36525;49.398;7.614;2023-04-08T08:08:41;25.15;;;19.38;;
50569;SDS011;36525;49.398;7.614;2023-04-08T08:11:11;27.33;;;19.83;;
50569;SDS011;36525;49.398;7.614;2023-04-08T08:13:39;25.17;;;19.33;;
50569;SDS011;36525;49.398;7.614;2023-04-08T08:16:06;24.15;;;18.98;;
50569;SDS011;36525;49.398;7.614;2023-04-08T08:18:37;22.23;;;17.60;;
50569;SDS011;36525;49.398;7.614;2023-04-08T08:21:05;22.77;;;17.00;;
50569;SDS011;36525;49.398;7.614;2023-04-08T08:23:33;20.65;;;16.17;;
50569;SDS011;36525;49.398;7.614;2023-04-08T08:26:02;23.45;;;17.23;;
50569;SDS011;36525;49.398;7.614;2023-04-08T08:28:35;22.52;;;17.70;;
50569;SDS011;36525;49.398;7.614;2023-04-08T08:31:03;18.95;;;15.60;;
50569;SDS011;36525;49.398;7.614;2023-04-08T08:33:32;22.13;;;15.90;;
50569;SDS011;36525;49.398;7.614;2023-04-08T08:35:59;17.70;;;14.95;;
50569;SDS011;36525;49.398;7.614;2023-04-08T08:38:26;20.05;;;15.80;;
50569;SDS011;36525;49.398;7.614;2023-04-08T08:40:54;17.90;;;14.32;;
50569;SDS011;36525;49.398;7.614;2023-04-08T08:43:26;20.08;;;15.73;;
50569;SDS011;36525;49.398;7.614;2023-04-08T08:45:54;18.33;;;14.20;;
50569;SDS011;36525;49.398;7.614;2023-04-08T08:48:21;18.33;;;16.15;;
50569;SDS011;36525;49.398;7.614;2023-04-08T08:50:48;18.88;;;14.32;;
50569;SDS011;36525;49.398;7.614;2023-04-08T08:53:15;20.23;;;15.38;;
50569;SDS011;36525;49.398;7.614;2023-04-08T08:55:44;17.23;;;14.50;;
50569;SDS011;36525;49.398;7.614;2023-04-08T08:58:31;19.60;;;15.13;;
50569;SDS011;36525;49.398;7.614;2023-04-08T09:00:58;17.90;;;13.95;;
50569;SDS011;36525;49.398;7.614;2023-04-08T09:03:26;16.50;;;14.00;;
50569;SDS011;36525;49.398;7.614;2023-04-08T09:05:55;18.20;;;15.10;;
50569;SDS011;36525;49.398;7.614;2023-04-08T09:08:25;19.02;;;14.90;;
50569;SDS011;36525;49.398;7.614;2023-04-08T09:13:49;18.38;;;14.38;;
50569;SDS011;36525;49.398;7.614;2023-04-08T09:16:17;20.42;;;14.75;;
50569;SDS011;36525;49.398;7.614;2023-04-08T09:18:45;20.55;;;14.02;;
50569;SDS011;36525;49.398;7.614;2023-04-08T09:21:15;16.33;;;14.57;;
50569;SDS011;36525;49.398;7.614;2023-04-08T09:28:57;18.98;;;13.63;;
50569;SDS011;36525;49.398;7.614;2023-04-08T09:31:43;15.70;;;12.63;;
50569;SDS011;36525;49.398;7.614;2023-04-08T09:34:13;21.85;;;16.23;;
50569;SDS011;36525;49.398;7.614;2023-04-08T09:36:42;17.02;;;13.35;;
50569;SDS011;36525;49.398;7.614;2023-04-08T09:39:10;17.70;;;13.23;;
50569;SDS011;36525;49.398;7.614;2023-04-08T09:41:37;17.73;;;14.98;;
50569;SDS011;36525;49.398;7.614;2023-04-08T09:44:07;17.67;;;14.32;;
50569;SDS011;36525;49.398;7.614;2023-04-08T09:52:09;17.50;;;14.93;;
50569;SDS011;36525;49.398;7.614;2023-04-08T10:00:14;17.83;;;15.23;;
50569;SDS011;36525;49.398;7.614;2023-04-08T10:03:06;19.70;;;15.55;;
50569;SDS011;36525;49.398;7.614;2023-04-08T10:05:44;19.85;;;15.93;;
50569;SDS011;36525;49.398;7.614;2023-04-08T10:08:12;21.00;;;17.08;;
50569;SDS011;36525;49.398;7.614;2023-04-08T10:10:41;21.65;;;15.50;;
50569;SDS011;36525;49.398;7.614;2023-04-08T10:13:11;19.25;;;15.90;;
50569;SDS011;36525;49.398;7.614;2023-04-08T10:15:42;20.45;;;17.30;;
50569;SDS011;36525;49.398;7.614;2023-04-08T10:20:40;21.77;;;17.05;;
50569;SDS011;36525;49.398;7.614;2023-04-08T10:23:09;18.23;;;15.63;;
50569;SDS011;36525;49.398;7.614;2023-04-08T10:33:20;20.30;;;15.48;;
50569;SDS011;36525;49.398;7.614;2023-04-08T10:36:00;19.40;;;15.20;;
50569;SDS011;36525;49.398;7.614;2023-04-08T10:38:38;20.30;;;15.70;;
50569;SDS011;36525;49.398;7.614;2023-04-08T10:41:07;21.52;;;15.25;;
50569;SDS011;36525;49.398;7.614;2023-04-08T10:43:37;16.42;;;14.15;;
50569;SDS011;36525;49.398;7.614;2023-04-08T10:46:04;19.92;;;15.15;;
50569;SDS011;36525;49.398;7.614;2023-04-08T10:48:31;18.27;;;15.35;;
50569;SDS011;36525;49.398;7.614;2023-04-08T10:51:02;20.15;;;15.10;;
50569;SDS011;36525;49.398;7.614;2023-04-08T10:56:06;17.42;;;14.32;;
50569;SDS011;36525;49.398;7.614;2023-04-08T10:59:14;17.52;;;15.63;;
50569;SDS011;36525;49.398;7.614;2023-04-08T11:01:37;19.17;;;14.63;;
50569;SDS011;36525;49.398;7.614;2023-04-08T11:06:40;21.25;;;14.98;;
50569;SDS011;36525;49.398;7.614;2023-04-08T11:09:09;18.52;;;15.20;;
50569;SDS011;36525;49.398;7.614;2023-04-08T11:11:37;19.00;;;15.40;;
50569;SDS011;36525;49.398;7.614;2023-04-08T11:14:04;18.02;;;15.20;;
50569;SDS011;36525;49.398;7.614;2023-04-08T11:16:32;17.70;;;14.45;;
50569;SDS011;36525;49.398;7.614;2023-04-08T11:19:04;20.42;;;15.80;;
50569;SDS011;36525;49.398;7.614;2023-04-08T11:21:35;18.27;;;15.13;;
50569;SDS011;36525;49.398;7.614;2023-04-08T11:24:10;25.95;;;15.50;;
50569;SDS011;36525;49.398;7.614;2023-04-08T11:26:41;17.42;;;13.93;;
50569;SDS011;36525;49.398;7.614;2023-04-08T11:29:09;17.77;;;15.23;;
50569;SDS011;36525;49.398;7.614;2023-04-08T11:31:43;18.40;;;14.95;;
50569;SDS011;36525;49.398;7.614;2023-04-08T11:34:12;18.85;;;15.73;;
50569;SDS011;36525;49.398;7.614;2023-04-08T11:36:49;21.02;;;16.63;;
50569;SDS011;36525;49.398;7.614;2023-04-08T11:39:17;18.65;;;14.93;;
50569;SDS011;36525;49.398;7.614;2023-04-08T11:41:49;16.42;;;14.18;;
50569;SDS011;36525;49.398;7.614;2023-04-08T11:44:16;19.95;;;16.48;;
50569;SDS011;36525;49.398;7.614;2023-04-08T11:46:50;20.40;;;16.00;;
50569;SDS011;36525;49.398;7.614;2023-04-08T11:49:22;22.75;;;17.67;;
50569;SDS011;36525;49.398;7.614;2023-04-08T11:51:54;24.55;;;19.08;;
50569;SDS011;36525;49.398;7.614;2023-04-08T11:54:29;25.13;;;18.95;;
50569;SDS011;36525;49.398;7.614;2023-04-08T11:56:58;25.00;;;19.27;;
50569;SDS011;36525;49.398;7.614;2023-04-08T11:59:26;24.20;;;19.27;;
50569;SDS011;36525;49.398;7.614;2023-04-08T12:01:55;22.50;;;17.70;;
50569;SDS011;36525;49.398;7.614;2023-04-08T12:04:22;27.90;;;19.05;;
50569;SDS011;36525;49.398;7.614;2023-04-08T12:06:49;21.95;;;17.40;;
50569;SDS011;36525;49.398;7.614;2023-04-08T12:09:17;23.20;;;18.45;;
50569;SDS011;36525;49.398;7.614;2023-04-08T12:11:44;22.10;;;17.50;;
50569;SDS011;36525;49.398;7.614;2023-04-08T12:14:12;21.92;;;16.83;;
50569;SDS011;36525;49.398;7.614;2023-04-08T12:16:40;22.83;;;17.63;;
50569;SDS011;36525;49.398;7.614;2023-04-08T12:19:07;22.20;;;16.08;;
50569;SDS011;36525;49.398;7.614;2023-04-08T12:21:34;20.42;;;14.90;;
50569;SDS011;36525;49.398;7.614;2023-04-08T12:24:01;16.98;;;14.13;;
50569;SDS011;36525;49.398;7.614;2023-04-08T12:26:29;18.25;;;13.95;;
50569;SDS011;36525;49.398;7.614;2023-04-08T12:28:56;18.52;;;13.35;;
50569;SDS011;36525;49.398;7.614;2023-04-08T12:31:23;16.40;;;12.60;;
50569;SDS011;36525;49.398;7.614;2023-04-08T12:33:52;20.50;;;13.23;;
50569;SDS011;36525;49.398;7.614;2023-04-08T12:36:20;17.55;;;12.90;;
50569;SDS011;36525;49.398;7.614;2023-04-08T12:38:47;16.67;;;12.82;;
50569;SDS011;36525;49.398;7.614;2023-04-08T12:41:15;17.05;;;12.50;;
50569;SDS011;36525;49.398;7.614;2023-04-08T12:43:42;15.70;;;13.20;;
50569;SDS011;36525;49.398;7.614;2023-04-08T12:46:09;15.43;;;11.50;;
50569;SDS011;36525;49.398;7.614;2023-04-08T12:48:36;14.90;;;11.05;;
50569;SDS011;36525;49.398;7.614;2023-04-08T12:51:03;13.88;;;10.27;;
50569;SDS011;36525;49.398;7.614;2023-04-08T12:53:30;15.70;;;10.77;;
50569;SDS011;36525;49.398;7.614;2023-04-08T12:55:58;12.80;;;9.98;;
50569;SDS011;36525;49.398;7.614;2023-04-08T12:58:25;12.50;;;9.30;;
50569;SDS011;36525;49.398;7.614;2023-04-08T13:00:52;11.63;;;8.73;;
50569;SDS011;36525;49.398;7.614;2023-04-08T13:03:19;9.75;;;8.07;;
50569;SDS011;36525;49.398;7.614;2023-04-08T13:05:46;10.07;;;7.20;;
50569;SDS011;36525;49.398;7.614;2023-04-08T13:08:14;13.65;;;7.53;;
50569;SDS011;36525;49.398;7.614;2023-04-08T13:10:41;11.23;;;8.23;;
50569;SDS011;36525;49.398;7.614;2023-04-08T13:13:08;10.02;;;7.28;;
50569;SDS011;36525;49.398;7.614;2023-04-08T13:15:37;11.90;;;7.30;;
50569;SDS011;36525;49.398;7.614;2023-04-08T13:18:04;10.13;;;7.13;;
50569;SDS011;36525;49.398;7.614;2023-04-08T13:20:31;9.68;;;6.85;;
50569;SDS011;36525;49.398;7.614;2023-04-08T13:22:59;10.05;;;7.18;;
50569;SDS011;36525;49.398;7.614;2023-04-08T13:25:26;10.88;;;7.00;;
50569;SDS011;36525;49.398;7.614;2023-04-08T13:27:53;10.45;;;6.85;;
50569;SDS011;36525;49.398;7.614;2023-04-08T13:30:21;8.93;;;6.90;;
50569;SDS011;36525;49.398;7.614;2023-04-08T13:32:48;9.55;;;6.60;;
50569;SDS011;36525;49.398;7.614;2023-04-08T13:35:15;9.80;;;6.45;;
50569;SDS011;36525;49.398;7.614;2023-04-08T13:37:43;9.27;;;6.82;;
50569;SDS011;36525;49.398;7.614;2023-04-08T13:40:10;12.05;;;7.53;;
50569;SDS011;36525;49.398;7.614;2023-04-08T13:42:37;9.13;;;7.00;;
50569;SDS011;36525;49.398;7.614;2023-04-08T13:45:04;9.18;;;6.35;;
50569;SDS011;36525;49.398;7.614;2023-04-08T13:47:35;9.68;;;6.43;;
50569;SDS011;36525;49.398;7.614;2023-04-08T13:50:03;9.85;;;6.20;;
50569;SDS011;36525;49.398;7.614;2023-04-08T13:52:34;8.27;;;5.38;;
50569;SDS011;36525;49.398;7.614;2023-04-08T13:55:01;7.68;;;5.28;;
50569;SDS011;36525;49.398;7.614;2023-04-08T13:57:28;7.95;;;5.85;;
50569;SDS011;36525;49.398;7.614;2023-04-08T13:59:56;8.23;;;5.82;;
50569;SDS011;36525;49.398;7.614;2023-04-08T14:02:23;9.43;;;6.20;;
50569;SDS011;36525;49.398;7.614;2023-04-08T14:04:52;8.25;;;5.93;;
50569;SDS011;36525;49.398;7.614;2023-04-08T14:07:19;8.55;;;5.93;;
50569;SDS011;36525;49.398;7.614;2023-04-08T14:09:49;8.07;;;5.57;;
50569;SDS011;36525;49.398;7.614;2023-04-08T14:12:16;7.50;;;5.65;;
50569;SDS011;36525;49.398;7.614;2023-04-08T14:14:43;7.15;;;5.47;;
50569;SDS011;36525;49.398;7.614;2023-04-08T14:17:10;8.63;;;6.25;;
50569;SDS011;36525;49.398;7.614;2023-04-08T14:19:38;12.43;;;6.80;;
50569;SDS011;36525;49.398;7.614;2023-04-08T14:22:05;10.02;;;6.93;;
50569;SDS011;36525;49.398;7.614;2023-04-08T14:24:32;12.68;;;7.78;;
50569;SDS011;36525;49.398;7.614;2023-04-08T14:26:59;9.32;;;6.97;;
50569;SDS011;36525;49.398;7.614;2023-04-08T14:29:27;10.55;;;7.78;;
50569;SDS011;36525;49.398;7.614;2023-04-08T14:31:54;9.88;;;7.40;;
50569;SDS011;36525;49.398;7.614;2023-04-08T14:34:22;12.48;;;7.80;;
50569;SDS011;36525;49.398;7.614;2023-04-08T14:36:52;12.00;;;8.75;;
50569;SDS011;36525;49.398;7.614;2023-04-08T14:39:19;10.35;;;8.40;;
50569;SDS011;36525;49.398;7.614;2023-04-08T14:41:47;11.30;;;8.35;;
50569;SDS011;36525;49.398;7.614;2023-04-08T14:44:14;12.43;;;9.10;;
50569;SDS011;36525;49.398;7.614;2023-04-08T14:46:41;11.75;;;8.98;;
50569;SDS011;36525;49.398;7.614;2023-04-08T14:49:08;11.20;;;8.60;;
50569;SDS011;36525;49.398;7.614;2023-04-08T14:51:35;11.98;;;8.88;;
50569;SDS011;36525;49.398;7.614;2023-04-08T14:54:03;13.82;;;9.10;;
50569;SDS011;36525;49.398;7.614;2023-04-08T14:56:31;12.93;;;8.50;;
50569;SDS011;36525;49.398;7.614;2023-04-08T14:58:58;12.25;;;9.07;;
50569;SDS011;36525;49.398;7.614;2023-04-08T15:01:25;12.18;;;8.85;;
50569;SDS011;36525;49.398;7.614;2023-04-08T15:03:54;11.77;;;8.90;;
50569;SDS011;36525;49.398;7.614;2023-04-08T15:06:21;14.10;;;8.57;;
50569;SDS011;36525;49.398;7.614;2023-04-08T15:08:48;11.63;;;8.57;;
50569;SDS011;36525;49.398;7.614;2023-04-08T15:11:16;12.80;;;9.77;;
50569;SDS011;36525;49.398;7.614;2023-04-08T15:13:46;13.90;;;9.35;;
50569;SDS011;36525;49.398;7.614;2023-04-08T15:16:13;11.50;;;8.48;;